sensor_id;sensor_type;location;lat;lon;timestamp;P1;durP1;ratioP1;P2;durP2;ratioP2
34920;SDS011;21128;50.016;20.002;2023-02-26T00:01:27;23.13;;;16.00;;
34920;SDS011;21128;50.016;20.002;2023-02-26T00:03:57;21.73;;;15.67;;
34920;SDS011;21128;50.016;20.002;2023-02-26T00:06:27;22.63;;;15.67;;
34920;SDS011;21128;50.016;20.002;2023-02-26T00:08:59;24.63;;;15.67;;
34920;SDS011;21128;50.016;20.002;2023-02-26T00:11:26;23.60;;;17.17;;
34920;SDS011;21128;50.016;20.002;2023-02-26T00:13:54;22.67;;;15.95;;
34920;SDS011;21128;50.016;20.002;2023-02-26T00:19:01;21.70;;;15.57;;
34920;SDS011;21128;50.016;20.002;2023-02-26T00:21:31;20.93;;;16.00;;
34920;SDS011;21128;50.016;20.002;2023-02-26T00:24:00;24.17;;;17.00;;
34920;SDS011;21128;50.016;20.002;2023-02-26T00:26:28;20.13;;;14.83;;
34920;SDS011;21128;50.016;20.002;2023-02-26T00:28:57;19.57;;;14.27;;
34920;SDS011;21128;50.016;20.002;2023-02-26T00:31:25;17.80;;;12.57;;
34920;SDS011;21128;50.016;20.002;2023-02-26T00:33:53;17.50;;;10.73;;
34920;SDS011;21128;50.016;20.002;2023-02-26T00:36:22;14.17;;;10.07;;
34920;SDS011;21128;50.016;20.002;2023-02-26T00:39:00;15.10;;;8.45;;
34920;SDS011;21128;50.016;20.002;2023-02-26T00:41:41;13.25;;;8.45;;
34920;SDS011;21128;50.016;20.002;2023-02-26T00:44:09;9.93;;;7.13;;
34920;SDS011;21128;50.016;20.002;2023-02-26T00:49:25;7.67;;;5.40;;
34920;SDS011;21128;50.016;20.002;2023-02-26T00:52:00;8.90;;;5.93;;
34920;SDS011;21128;50.016;20.002;2023-02-26T00:54:31;9.80;;;5.87;;
34920;SDS011;21128;50.016;20.002;2023-02-26T00:56:59;10.30;;;5.20;;
34920;SDS011;21128;50.016;20.002;2023-02-26T00:59:26;8.23;;;5.03;;
34920;SDS011;21128;50.016;20.002;2023-02-26T01:01:53;10.13;;;5.78;;
34920;SDS011;21128;50.016;20.002;2023-02-26T01:04:21;8.63;;;5.60;;
34920;SDS011;21128;50.016;20.002;2023-02-26T01:06:53;8.77;;;5.90;;
34920;SDS011;21128;50.016;20.002;2023-02-26T01:11:53;10.13;;;6.73;;
34920;SDS011;21128;50.016;20.002;2023-02-26T01:14:22;10.75;;;7.00;;
34920;SDS011;21128;50.016;20.002;2023-02-26T01:20:04;12.95;;;8.55;;
34920;SDS011;21128;50.016;20.002;2023-02-26T01:22:43;12.23;;;8.63;;
34920;SDS011;21128;50.016;20.002;2023-02-26T01:27:57;12.37;;;8.63;;
34920;SDS011;21128;50.016;20.002;2023-02-26T01:30:24;14.97;;;9.40;;
34920;SDS011;21128;50.016;20.002;2023-02-26T01:32:58;12.50;;;8.50;;
34920;SDS011;21128;50.016;20.002;2023-02-26T01:41:00;12.25;;;6.80;;
34920;SDS011;21128;50.016;20.002;2023-02-26T01:44:03;10.93;;;6.70;;
34920;SDS011;21128;50.016;20.002;2023-02-26T01:49:23;8.60;;;6.23;;
34920;SDS011;21128;50.016;20.002;2023-02-26T01:51:51;10.20;;;6.83;;
34920;SDS011;21128;50.016;20.002;2023-02-26T01:54:22;9.93;;;6.67;;
34920;SDS011;21128;50.016;20.002;2023-02-26T01:56:54;13.30;;;7.20;;
34920;SDS011;21128;50.016;20.002;2023-02-26T01:59:25;11.00;;;7.60;;
34920;SDS011;21128;50.016;20.002;2023-02-26T02:01:52;12.57;;;7.20;;
34920;SDS011;21128;50.016;20.002;2023-02-26T02:04:22;11.47;;;6.90;;
34920;SDS011;21128;50.016;20.002;2023-02-26T02:06:50;9.83;;;6.17;;
34920;SDS011;21128;50.016;20.002;2023-02-26T02:09:18;10.50;;;6.50;;
34920;SDS011;21128;50.016;20.002;2023-02-26T02:14:20;12.50;;;6.73;;
34920;SDS011;21128;50.016;20.002;2023-02-26T02:23:18;8.23;;;5.93;;
34920;SDS011;21128;50.016;20.002;2023-02-26T02:31:35;10.27;;;5.10;;
34920;SDS011;21128;50.016;20.002;2023-02-26T02:36:48;8.00;;;4.87;;
34920;SDS011;21128;50.016;20.002;2023-02-26T02:39:25;10.27;;;5.90;;
34920;SDS011;21128;50.016;20.002;2023-02-26T02:41:55;8.53;;;5.30;;
34920;SDS011;21128;50.016;20.002;2023-02-26T02:44:28;8.07;;;5.50;;
34920;SDS011;21128;50.016;20.002;2023-02-26T02:47:01;7.23;;;4.83;;
34920;SDS011;21128;50.016;20.002;2023-02-26T02:49:33;10.50;;;5.40;;
34920;SDS011;21128;50.016;20.002;2023-02-26T02:55:11;7.27;;;5.10;;
34920;SDS011;21128;50.016;20.002;2023-02-26T03:00:31;6.43;;;4.97;;
34920;SDS011;21128;50.016;20.002;2023-02-26T03:03:09;10.75;;;5.85;;
34920;SDS011;21128;50.016;20.002;2023-02-26T03:05:44;7.97;;;5.80;;
34920;SDS011;21128;50.016;20.002;2023-02-26T03:08:12;10.87;;;7.00;;
34920;SDS011;21128;50.016;20.002;2023-02-26T03:10:43;13.58;;;7.50;;
34920;SDS011;21128;50.016;20.002;2023-02-26T03:13:18;10.80;;;6.50;;
34920;SDS011;21128;50.016;20.002;2023-02-26T03:18:35;8.73;;;5.43;;
34920;SDS011;21128;50.016;20.002;2023-02-26T03:26:33;7.83;;;5.27;;
34920;SDS011;21128;50.016;20.002;2023-02-26T03:35:16;6.77;;;4.70;;
34920;SDS011;21128;50.016;20.002;2023-02-26T03:37:49;7.30;;;4.65;;
34920;SDS011;21128;50.016;20.002;2023-02-26T03:40:25;6.20;;;4.30;;
34920;SDS011;21128;50.016;20.002;2023-02-26T03:43:03;8.63;;;4.87;;
34920;SDS011;21128;50.016;20.002;2023-02-26T03:45:37;8.03;;;4.70;;
34920;SDS011;21128;50.016;20.002;2023-02-26T03:48:07;6.80;;;4.23;;
34920;SDS011;21128;50.016;20.002;2023-02-26T03:50:43;5.60;;;4.00;;
34920;SDS011;21128;50.016;20.002;2023-02-26T03:53:24;7.47;;;4.10;;
34920;SDS011;21128;50.016;20.002;2023-02-26T03:56:27;6.43;;;4.33;;
34920;SDS011;21128;50.016;20.002;2023-02-26T03:58:59;8.10;;;3.63;;
34920;SDS011;21128;50.016;20.002;2023-02-26T04:01:29;9.60;;;4.20;;
34920;SDS011;21128;50.016;20.002;2023-02-26T04:04:02;6.93;;;4.23;;
34920;SDS011;21128;50.016;20.002;2023-02-26T04:06:50;6.57;;;4.17;;
34920;SDS011;21128;50.016;20.002;2023-02-26T04:09:22;7.80;;;3.65;;
34920;SDS011;21128;50.016;20.002;2023-02-26T04:11:50;4.27;;;3.33;;
34920;SDS011;21128;50.016;20.002;2023-02-26T04:14:20;5.27;;;3.43;;
34920;SDS011;21128;50.016;20.002;2023-02-26T04:16:47;4.95;;;3.58;;
34920;SDS011;21128;50.016;20.002;2023-02-26T04:19:15;4.80;;;3.90;;
34920;SDS011;21128;50.016;20.002;2023-02-26T04:21:42;6.23;;;3.63;;
34920;SDS011;21128;50.016;20.002;2023-02-26T04:24:09;7.17;;;3.43;;
34920;SDS011;21128;50.016;20.002;2023-02-26T04:26:37;4.50;;;3.20;;
34920;SDS011;21128;50.016;20.002;2023-02-26T04:29:03;4.20;;;3.10;;
34920;SDS011;21128;50.016;20.002;2023-02-26T04:31:30;5.17;;;3.30;;
34920;SDS011;21128;50.016;20.002;2023-02-26T04:33:57;4.50;;;2.70;;
34920;SDS011;21128;50.016;20.002;2023-02-26T04:36:24;4.58;;;2.83;;
34920;SDS011;21128;50.016;20.002;2023-02-26T04:38:51;4.97;;;3.10;;
34920;SDS011;21128;50.016;20.002;2023-02-26T04:41:19;3.63;;;2.80;;
34920;SDS011;21128;50.016;20.002;2023-02-26T04:43:47;6.20;;;3.10;;
34920;SDS011;21128;50.016;20.002;2023-02-26T04:46:15;3.70;;;2.90;;
34920;SDS011;21128;50.016;20.002;2023-02-26T04:48:43;5.33;;;3.10;;
34920;SDS011;21128;50.016;20.002;2023-02-26T04:51:10;4.80;;;2.90;;
34920;SDS011;21128;50.016;20.002;2023-02-26T04:53:37;4.45;;;2.30;;
34920;SDS011;21128;50.016;20.002;2023-02-26T04:56:05;7.07;;;2.37;;
34920;SDS011;21128;50.016;20.002;2023-02-26T04:58:33;4.75;;;2.65;;
34920;SDS011;21128;50.016;20.002;2023-02-26T05:01:00;4.43;;;2.70;;
34920;SDS011;21128;50.016;20.002;2023-02-26T05:03:27;6.27;;;2.77;;
34920;SDS011;21128;50.016;20.002;2023-02-26T05:05:55;7.47;;;2.60;;
34920;SDS011;21128;50.016;20.002;2023-02-26T05:08:22;4.17;;;2.67;;
34920;SDS011;21128;50.016;20.002;2023-02-26T05:10:50;8.93;;;3.03;;
34920;SDS011;21128;50.016;20.002;2023-02-26T05:13:18;4.93;;;3.00;;
34920;SDS011;21128;50.016;20.002;2023-02-26T05:15:48;5.53;;;2.60;;
34920;SDS011;21128;50.016;20.002;2023-02-26T05:18:16;4.90;;;2.75;;
34920;SDS011;21128;50.016;20.002;2023-02-26T05:20:43;6.00;;;3.10;;
34920;SDS011;21128;50.016;20.002;2023-02-26T05:23:10;5.77;;;3.00;;
34920;SDS011;21128;50.016;20.002;2023-02-26T05:25:38;3.30;;;2.55;;
34920;SDS011;21128;50.016;20.002;2023-02-26T05:28:05;6.85;;;2.95;;
34920;SDS011;21128;50.016;20.002;2023-02-26T05:30:32;6.85;;;2.95;;
34920;SDS011;21128;50.016;20.002;2023-02-26T05:32:59;4.20;;;2.45;;
34920;SDS011;21128;50.016;20.002;2023-02-26T05:35:26;12.85;;;3.37;;
34920;SDS011;21128;50.016;20.002;2023-02-26T05:37:53;3.97;;;2.20;;
34920;SDS011;21128;50.016;20.002;2023-02-26T05:40:21;5.25;;;2.50;;
34920;SDS011;21128;50.016;20.002;2023-02-26T05:42:48;5.87;;;2.40;;
34920;SDS011;21128;50.016;20.002;2023-02-26T05:45:16;4.97;;;2.40;;
34920;SDS011;21128;50.016;20.002;2023-02-26T05:47:44;6.67;;;2.60;;
34920;SDS011;21128;50.016;20.002;2023-02-26T05:50:11;4.63;;;2.60;;
34920;SDS011;21128;50.016;20.002;2023-02-26T05:52:38;3.67;;;2.08;;
34920;SDS011;21128;50.016;20.002;2023-02-26T05:55:06;7.92;;;2.58;;
34920;SDS011;21128;50.016;20.002;2023-02-26T05:57:35;3.33;;;2.27;;
34920;SDS011;21128;50.016;20.002;2023-02-26T06:00:03;4.00;;;2.53;;
34920;SDS011;21128;50.016;20.002;2023-02-26T06:02:31;4.85;;;2.25;;
34920;SDS011;21128;50.016;20.002;2023-02-26T06:04:58;5.25;;;2.70;;
34920;SDS011;21128;50.016;20.002;2023-02-26T06:07:25;5.33;;;2.27;;
34920;SDS011;21128;50.016;20.002;2023-02-26T06:09:52;7.57;;;3.07;;
34920;SDS011;21128;50.016;20.002;2023-02-26T06:12:20;6.10;;;2.70;;
34920;SDS011;21128;50.016;20.002;2023-02-26T06:14:47;4.93;;;3.13;;
34920;SDS011;21128;50.016;20.002;2023-02-26T06:17:14;6.63;;;2.87;;
34920;SDS011;21128;50.016;20.002;2023-02-26T06:19:41;3.30;;;2.60;;
34920;SDS011;21128;50.016;20.002;2023-02-26T06:22:08;4.80;;;2.73;;
34920;SDS011;21128;50.016;20.002;2023-02-26T06:24:36;4.63;;;3.00;;
34920;SDS011;21128;50.016;20.002;2023-02-26T06:27:03;9.43;;;3.47;;
34920;SDS011;21128;50.016;20.002;2023-02-26T06:29:30;5.25;;;2.77;;
34920;SDS011;21128;50.016;20.002;2023-02-26T06:31:57;8.73;;;3.10;;
34920;SDS011;21128;50.016;20.002;2023-02-26T06:34:25;7.70;;;2.47;;
34920;SDS011;21128;50.016;20.002;2023-02-26T06:36:52;6.70;;;2.92;;
34920;SDS011;21128;50.016;20.002;2023-02-26T06:39:19;6.33;;;3.47;;
34920;SDS011;21128;50.016;20.002;2023-02-26T06:41:47;5.90;;;3.50;;
34920;SDS011;21128;50.016;20.002;2023-02-26T06:44:14;5.85;;;3.50;;
34920;SDS011;21128;50.016;20.002;2023-02-26T06:46:41;8.40;;;3.90;;
34920;SDS011;21128;50.016;20.002;2023-02-26T06:49:08;8.37;;;3.47;;
34920;SDS011;21128;50.016;20.002;2023-02-26T06:51:35;7.97;;;3.30;;
34920;SDS011;21128;50.016;20.002;2023-02-26T06:54:03;7.27;;;3.07;;
34920;SDS011;21128;50.016;20.002;2023-02-26T06:56:30;7.90;;;3.93;;
34920;SDS011;21128;50.016;20.002;2023-02-26T06:58:57;5.57;;;3.50;;
34920;SDS011;21128;50.016;20.002;2023-02-26T07:01:25;5.20;;;3.10;;
34920;SDS011;21128;50.016;20.002;2023-02-26T07:03:52;6.83;;;3.50;;
34920;SDS011;21128;50.016;20.002;2023-02-26T07:06:20;7.03;;;3.40;;
34920;SDS011;21128;50.016;20.002;2023-02-26T07:08:47;6.90;;;3.40;;
34920;SDS011;21128;50.016;20.002;2023-02-26T07:11:14;6.10;;;3.52;;
34920;SDS011;21128;50.016;20.002;2023-02-26T07:13:41;6.77;;;3.37;;
34920;SDS011;21128;50.016;20.002;2023-02-26T07:16:08;9.23;;;3.65;;
34920;SDS011;21128;50.016;20.002;2023-02-26T07:18:36;9.77;;;3.80;;
34920;SDS011;21128;50.016;20.002;2023-02-26T07:21:03;9.20;;;4.13;;
34920;SDS011;21128;50.016;20.002;2023-02-26T07:23:31;8.15;;;3.72;;
34920;SDS011;21128;50.016;20.002;2023-02-26T07:25:58;7.53;;;4.20;;
34920;SDS011;21128;50.016;20.002;2023-02-26T07:28:25;9.55;;;3.83;;
34920;SDS011;21128;50.016;20.002;2023-02-26T07:30:53;9.67;;;4.23;;
34920;SDS011;21128;50.016;20.002;2023-02-26T07:33:21;8.30;;;3.90;;
34920;SDS011;21128;50.016;20.002;2023-02-26T07:35:49;7.37;;;3.40;;
34920;SDS011;21128;50.016;20.002;2023-02-26T07:38:16;7.87;;;4.17;;
34920;SDS011;21128;50.016;20.002;2023-02-26T07:40:43;7.03;;;3.93;;
34920;SDS011;21128;50.016;20.002;2023-02-26T07:43:11;6.73;;;3.73;;
34920;SDS011;21128;50.016;20.002;2023-02-26T07:45:38;8.23;;;3.67;;
34920;SDS011;21128;50.016;20.002;2023-02-26T07:48:06;9.75;;;3.80;;
34920;SDS011;21128;50.016;20.002;2023-02-26T07:50:34;8.73;;;4.17;;
34920;SDS011;21128;50.016;20.002;2023-02-26T07:53:01;9.17;;;3.60;;
34920;SDS011;21128;50.016;20.002;2023-02-26T07:55:29;6.80;;;3.43;;
34920;SDS011;21128;50.016;20.002;2023-02-26T07:57:56;7.00;;;3.87;;
34920;SDS011;21128;50.016;20.002;2023-02-26T08:00:23;5.27;;;3.17;;
34920;SDS011;21128;50.016;20.002;2023-02-26T08:02:51;6.35;;;3.45;;
34920;SDS011;21128;50.016;20.002;2023-02-26T08:05:18;7.80;;;2.73;;
34920;SDS011;21128;50.016;20.002;2023-02-26T08:07:45;6.65;;;3.35;;
34920;SDS011;21128;50.016;20.002;2023-02-26T08:10:13;6.35;;;3.00;;
34920;SDS011;21128;50.016;20.002;2023-02-26T08:12:40;6.40;;;2.70;;
34920;SDS011;21128;50.016;20.002;2023-02-26T08:15:08;3.57;;;1.93;;
34920;SDS011;21128;50.016;20.002;2023-02-26T08:17:35;2.93;;;1.70;;
34920;SDS011;21128;50.016;20.002;2023-02-26T08:20:03;3.03;;;1.80;;
34920;SDS011;21128;50.016;20.002;2023-02-26T08:22:30;5.57;;;1.73;;
34920;SDS011;21128;50.016;20.002;2023-02-26T08:24:58;3.83;;;2.20;;
34920;SDS011;21128;50.016;20.002;2023-02-26T08:27:26;4.40;;;2.23;;
34920;SDS011;21128;50.016;20.002;2023-02-26T08:29:53;6.47;;;2.53;;
34920;SDS011;21128;50.016;20.002;2023-02-26T08:32:20;6.50;;;2.57;;
34920;SDS011;21128;50.016;20.002;2023-02-26T08:34:48;6.33;;;3.03;;
34920;SDS011;21128;50.016;20.002;2023-02-26T08:37:16;6.15;;;3.00;;
34920;SDS011;21128;50.016;20.002;2023-02-26T08:39:43;6.20;;;2.83;;
34920;SDS011;21128;50.016;20.002;2023-02-26T08:42:10;6.03;;;2.80;;
34920;SDS011;21128;50.016;20.002;2023-02-26T08:44:38;4.33;;;2.50;;
34920;SDS011;21128;50.016;20.002;2023-02-26T08:47:05;4.65;;;2.90;;
34920;SDS011;21128;50.016;20.002;2023-02-26T08:49:32;6.97;;;3.33;;
34920;SDS011;21128;50.016;20.002;2023-02-26T08:51:59;6.00;;;3.20;;
34920;SDS011;21128;50.016;20.002;2023-02-26T08:54:26;3.98;;;2.40;;
34920;SDS011;21128;50.016;20.002;2023-02-26T08:56:54;6.77;;;2.83;;
34920;SDS011;21128;50.016;20.002;2023-02-26T08:59:23;5.60;;;3.20;;
34920;SDS011;21128;50.016;20.002;2023-02-26T09:01:51;7.93;;;2.77;;
34920;SDS011;21128;50.016;20.002;2023-02-26T09:04:19;5.93;;;3.10;;
34920;SDS011;21128;50.016;20.002;2023-02-26T09:06:46;5.50;;;2.70;;
34920;SDS011;21128;50.016;20.002;2023-02-26T09:09:13;8.00;;;3.13;;
34920;SDS011;21128;50.016;20.002;2023-02-26T09:11:40;3.57;;;2.50;;
34920;SDS011;21128;50.016;20.002;2023-02-26T09:14:08;6.90;;;2.57;;
34920;SDS011;21128;50.016;20.002;2023-02-26T09:16:35;5.57;;;2.43;;
34920;SDS011;21128;50.016;20.002;2023-02-26T09:19:03;7.60;;;2.70;;
34920;SDS011;21128;50.016;20.002;2023-02-26T09:21:32;9.20;;;2.50;;
34920;SDS011;21128;50.016;20.002;2023-02-26T09:24:01;3.40;;;2.55;;
34920;SDS011;21128;50.016;20.002;2023-02-26T09:26:31;5.50;;;2.40;;
34920;SDS011;21128;50.016;20.002;2023-02-26T09:28:58;4.57;;;2.87;;
34920;SDS011;21128;50.016;20.002;2023-02-26T09:31:25;4.33;;;2.17;;
34920;SDS011;21128;50.016;20.002;2023-02-26T09:33:54;3.77;;;2.20;;
34920;SDS011;21128;50.016;20.002;2023-02-26T09:36:21;6.70;;;2.50;;
34920;SDS011;21128;50.016;20.002;2023-02-26T09:38:48;3.30;;;2.27;;
34920;SDS011;21128;50.016;20.002;2023-02-26T09:41:17;5.53;;;2.13;;
34920;SDS011;21128;50.016;20.002;2023-02-26T09:46:56;6.67;;;2.67;;
34920;SDS011;21128;50.016;20.002;2023-02-26T09:49:49;3.60;;;2.33;;
34920;SDS011;21128;50.016;20.002;2023-02-26T09:57:43;4.03;;;1.90;;
34920;SDS011;21128;50.016;20.002;2023-02-26T10:02:50;5.40;;;2.35;;
34920;SDS011;21128;50.016;20.002;2023-02-26T10:08:13;4.60;;;2.20;;
34920;SDS011;21128;50.016;20.002;2023-02-26T10:11:04;4.20;;;2.40;;
34920;SDS011;21128;50.016;20.002;2023-02-26T10:13:50;7.07;;;3.20;;
34920;SDS011;21128;50.016;20.002;2023-02-26T10:16:28;8.08;;;4.58;;
34920;SDS011;21128;50.016;20.002;2023-02-26T10:19:03;4.40;;;2.57;;
34920;SDS011;21128;50.016;20.002;2023-02-26T10:21:45;8.47;;;3.10;;
34920;SDS011;21128;50.016;20.002;2023-02-26T10:24:48;8.57;;;3.30;;
34920;SDS011;21128;50.016;20.002;2023-02-26T10:27:23;3.97;;;2.37;;
34920;SDS011;21128;50.016;20.002;2023-02-26T10:30:09;4.13;;;2.27;;
34920;SDS011;21128;50.016;20.002;2023-02-26T10:32:58;5.07;;;2.10;;
34920;SDS011;21128;50.016;20.002;2023-02-26T10:35:28;4.50;;;2.20;;
34920;SDS011;21128;50.016;20.002;2023-02-26T10:38:13;5.63;;;3.73;;
34920;SDS011;21128;50.016;20.002;2023-02-26T10:40:48;5.13;;;2.10;;
34920;SDS011;21128;50.016;20.002;2023-02-26T10:51:40;3.47;;;2.10;;
34920;SDS011;21128;50.016;20.002;2023-02-26T10:54:28;3.60;;;1.90;;
34920;SDS011;21128;50.016;20.002;2023-02-26T10:57:00;2.58;;;1.52;;
34920;SDS011;21128;50.016;20.002;2023-02-26T10:59:30;3.63;;;1.70;;
34920;SDS011;21128;50.016;20.002;2023-02-26T11:01:57;2.77;;;1.80;;
34920;SDS011;21128;50.016;20.002;2023-02-26T11:04:26;3.53;;;2.03;;
34920;SDS011;21128;50.016;20.002;2023-02-26T11:06:55;3.33;;;2.30;;
34920;SDS011;21128;50.016;20.002;2023-02-26T11:09:25;3.33;;;2.10;;
34920;SDS011;21128;50.016;20.002;2023-02-26T11:12:04;4.87;;;2.33;;
34920;SDS011;21128;50.016;20.002;2023-02-26T11:14:38;4.23;;;2.13;;
34920;SDS011;21128;50.016;20.002;2023-02-26T11:17:24;3.03;;;1.60;;
34920;SDS011;21128;50.016;20.002;2023-02-26T11:20:02;3.27;;;1.83;;
34920;SDS011;21128;50.016;20.002;2023-02-26T11:22:43;6.50;;;2.55;;
34920;SDS011;21128;50.016;20.002;2023-02-26T11:25:16;6.17;;;2.30;;
34920;SDS011;21128;50.016;20.002;2023-02-26T11:27:46;3.20;;;2.27;;
34920;SDS011;21128;50.016;20.002;2023-02-26T11:32:45;3.07;;;1.90;;
34920;SDS011;21128;50.016;20.002;2023-02-26T11:35:18;5.95;;;1.62;;
34920;SDS011;21128;50.016;20.002;2023-02-26T11:37:52;5.80;;;3.20;;
34920;SDS011;21128;50.016;20.002;2023-02-26T11:40:27;6.73;;;3.10;;
34920;SDS011;21128;50.016;20.002;2023-02-26T11:43:03;5.97;;;3.00;;
34920;SDS011;21128;50.016;20.002;2023-02-26T11:45:34;9.43;;;2.60;;
34920;SDS011;21128;50.016;20.002;2023-02-26T11:48:06;5.50;;;2.70;;
34920;SDS011;21128;50.016;20.002;2023-02-26T11:50:42;6.07;;;2.40;;
34920;SDS011;21128;50.016;20.002;2023-02-26T11:53:19;3.17;;;2.23;;
34920;SDS011;21128;50.016;20.002;2023-02-26T11:55:57;3.60;;;2.60;;
34920;SDS011;21128;50.016;20.002;2023-02-26T11:58:33;5.30;;;3.20;;
34920;SDS011;21128;50.016;20.002;2023-02-26T12:01:03;4.47;;;3.00;;
34920;SDS011;21128;50.016;20.002;2023-02-26T12:03:35;5.50;;;2.80;;
34920;SDS011;21128;50.016;20.002;2023-02-26T12:06:41;7.43;;;2.77;;
34920;SDS011;21128;50.016;20.002;2023-02-26T12:09:01;4.60;;;2.77;;
34920;SDS011;21128;50.016;20.002;2023-02-26T12:11:34;4.80;;;2.57;;
34920;SDS011;21128;50.016;20.002;2023-02-26T12:14:20;4.35;;;2.45;;
34920;SDS011;21128;50.016;20.002;2023-02-26T12:17:00;8.30;;;3.87;;
34920;SDS011;21128;50.016;20.002;2023-02-26T12:55:57;5.37;;;3.13;;
34920;SDS011;21128;50.016;20.002;2023-02-26T13:07:02;7.13;;;2.73;;
34920;SDS011;21128;50.016;20.002;2023-02-26T13:10:04;6.57;;;2.60;;
34920;SDS011;21128;50.016;20.002;2023-02-26T13:21:53;6.77;;;3.50;;
34920;SDS011;21128;50.016;20.002;2023-02-26T13:24:36;5.53;;;2.42;;
34920;SDS011;21128;50.016;20.002;2023-02-26T13:27:11;7.00;;;3.67;;
34920;SDS011;21128;50.016;20.002;2023-02-26T13:29:49;5.47;;;2.93;;
34920;SDS011;21128;50.016;20.002;2023-02-26T13:32:38;7.87;;;4.33;;
34920;SDS011;21128;50.016;20.002;2023-02-26T13:35:17;9.50;;;4.30;;
34920;SDS011;21128;50.016;20.002;2023-02-26T13:37:49;7.30;;;3.90;;
34920;SDS011;21128;50.016;20.002;2023-02-26T13:40:37;8.63;;;4.07;;
34920;SDS011;21128;50.016;20.002;2023-02-26T13:51:39;3.70;;;2.20;;
34920;SDS011;21128;50.016;20.002;2023-02-26T13:56:52;5.73;;;2.17;;
34920;SDS011;21128;50.016;20.002;2023-02-26T13:59:35;4.40;;;2.10;;
34920;SDS011;21128;50.016;20.002;2023-02-26T14:04:50;4.20;;;2.50;;
34920;SDS011;21128;50.016;20.002;2023-02-26T14:10:16;3.75;;;2.40;;
34920;SDS011;21128;50.016;20.002;2023-02-26T14:18:49;6.90;;;3.20;;
34920;SDS011;21128;50.016;20.002;2023-02-26T14:23:57;7.57;;;3.33;;
34920;SDS011;21128;50.016;20.002;2023-02-26T14:26:30;5.50;;;3.20;;
34920;SDS011;21128;50.016;20.002;2023-02-26T14:34:19;6.90;;;2.80;;
34920;SDS011;21128;50.016;20.002;2023-02-26T14:36:53;6.63;;;3.23;;
34920;SDS011;21128;50.016;20.002;2023-02-26T14:39:39;7.67;;;3.27;;
34920;SDS011;21128;50.016;20.002;2023-02-26T14:42:09;5.37;;;3.10;;
34920;SDS011;21128;50.016;20.002;2023-02-26T14:44:45;6.37;;;3.37;;
34920;SDS011;21128;50.016;20.002;2023-02-26T14:47:16;6.00;;;3.30;;
34920;SDS011;21128;50.016;20.002;2023-02-26T14:49:44;8.23;;;3.57;;
34920;SDS011;21128;50.016;20.002;2023-02-26T14:52:34;7.93;;;3.20;;
34920;SDS011;21128;50.016;20.002;2023-02-26T14:55:20;7.13;;;4.10;;
34920;SDS011;21128;50.016;20.002;2023-02-26T15:00:51;9.00;;;4.13;;
34920;SDS011;21128;50.016;20.002;2023-02-26T15:03:51;8.20;;;4.27;;
34920;SDS011;21128;50.016;20.002;2023-02-26T15:18:27;7.67;;;4.25;;
34920;SDS011;21128;50.016;20.002;2023-02-26T15:21:20;9.23;;;3.60;;
34920;SDS011;21128;50.016;20.002;2023-02-26T15:23:57;8.70;;;3.70;;
34920;SDS011;21128;50.016;20.002;2023-02-26T15:29:03;9.03;;;3.90;;
34920;SDS011;21128;50.016;20.002;2023-02-26T15:31:35;6.63;;;3.70;;
34920;SDS011;21128;50.016;20.002;2023-02-26T15:34:09;7.27;;;3.73;;
34920;SDS011;21128;50.016;20.002;2023-02-26T15:36:39;4.87;;;3.03;;
34920;SDS011;21128;50.016;20.002;2023-02-26T15:39:11;4.50;;;2.47;;
34920;SDS011;21128;50.016;20.002;2023-02-26T15:41:42;5.67;;;3.40;;
34920;SDS011;21128;50.016;20.002;2023-02-26T15:44:25;4.60;;;2.67;;
34920;SDS011;21128;50.016;20.002;2023-02-26T15:47:00;6.20;;;2.70;;
34920;SDS011;21128;50.016;20.002;2023-02-26T15:49:32;7.07;;;2.50;;
34920;SDS011;21128;50.016;20.002;2023-02-26T15:52:03;5.37;;;2.87;;
34920;SDS011;21128;50.016;20.002;2023-02-26T15:54:39;5.40;;;2.83;;
34920;SDS011;21128;50.016;20.002;2023-02-26T15:57:10;6.30;;;3.67;;
34920;SDS011;21128;50.016;20.002;2023-02-26T15:59:44;7.80;;;3.25;;
34920;SDS011;21128;50.016;20.002;2023-02-26T16:02:15;7.40;;;3.63;;
34920;SDS011;21128;50.016;20.002;2023-02-26T16:04:46;8.80;;;3.20;;
34920;SDS011;21128;50.016;20.002;2023-02-26T16:07:13;8.63;;;3.40;;
34920;SDS011;21128;50.016;20.002;2023-02-26T16:09:43;5.80;;;3.20;;
34920;SDS011;21128;50.016;20.002;2023-02-26T16:12:16;6.67;;;3.40;;
34920;SDS011;21128;50.016;20.002;2023-02-26T16:14:48;6.73;;;3.80;;
34920;SDS011;21128;50.016;20.002;2023-02-26T16:19:55;5.90;;;3.70;;
34920;SDS011;21128;50.016;20.002;2023-02-26T16:22:26;8.47;;;4.30;;
34920;SDS011;21128;50.016;20.002;2023-02-26T16:25:04;6.87;;;3.67;;
34920;SDS011;21128;50.016;20.002;2023-02-26T16:27:35;8.40;;;4.10;;
34920;SDS011;21128;50.016;20.002;2023-02-26T16:30:03;6.83;;;4.23;;
34920;SDS011;21128;50.016;20.002;2023-02-26T16:32:32;8.73;;;4.30;;
34920;SDS011;21128;50.016;20.002;2023-02-26T16:35:14;8.33;;;4.30;;
34920;SDS011;21128;50.016;20.002;2023-02-26T16:37:50;8.50;;;4.53;;
34920;SDS011;21128;50.016;20.002;2023-02-26T16:40:25;11.85;;;4.80;;
34920;SDS011;21128;50.016;20.002;2023-02-26T16:43:56;7.30;;;4.27;;
34920;SDS011;21128;50.016;20.002;2023-02-26T16:46:03;10.73;;;5.30;;
34920;SDS011;21128;50.016;20.002;2023-02-26T16:48:35;9.30;;;4.80;;
34920;SDS011;21128;50.016;20.002;2023-02-26T16:51:13;8.43;;;4.80;;
34920;SDS011;21128;50.016;20.002;2023-02-26T16:53:47;11.87;;;5.57;;
34920;SDS011;21128;50.016;20.002;2023-02-26T16:56:22;12.17;;;5.17;;
34920;SDS011;21128;50.016;20.002;2023-02-26T17:01:30;8.50;;;4.87;;
34920;SDS011;21128;50.016;20.002;2023-02-26T17:04:04;12.97;;;5.23;;
34920;SDS011;21128;50.016;20.002;2023-02-26T17:06:34;9.13;;;4.77;;
34920;SDS011;21128;50.016;20.002;2023-02-26T17:09:05;8.87;;;4.80;;
34920;SDS011;21128;50.016;20.002;2023-02-26T17:11:37;8.40;;;4.50;;
34920;SDS011;21128;50.016;20.002;2023-02-26T17:14:25;9.33;;;4.90;;
34920;SDS011;21128;50.016;20.002;2023-02-26T17:16:56;7.80;;;4.65;;
34920;SDS011;21128;50.016;20.002;2023-02-26T17:19:23;14.07;;;4.80;;
34920;SDS011;21128;50.016;20.002;2023-02-26T17:21:52;8.37;;;4.70;;
34920;SDS011;21128;50.016;20.002;2023-02-26T17:24:23;7.20;;;4.47;;
34920;SDS011;21128;50.016;20.002;2023-02-26T17:26:56;8.30;;;5.27;;
34920;SDS011;21128;50.016;20.002;2023-02-26T17:29:26;9.97;;;4.10;;
34920;SDS011;21128;50.016;20.002;2023-02-26T17:31:59;7.93;;;4.63;;
34920;SDS011;21128;50.016;20.002;2023-02-26T17:34:26;10.03;;;5.20;;
34920;SDS011;21128;50.016;20.002;2023-02-26T17:36:53;10.23;;;4.97;;
34920;SDS011;21128;50.016;20.002;2023-02-26T17:39:22;12.63;;;5.17;;
34920;SDS011;21128;50.016;20.002;2023-02-26T17:41:50;9.77;;;4.53;;
34920;SDS011;21128;50.016;20.002;2023-02-26T17:44:17;12.80;;;5.70;;
34920;SDS011;21128;50.016;20.002;2023-02-26T17:46:45;11.63;;;5.53;;
34920;SDS011;21128;50.016;20.002;2023-02-26T17:49:15;9.50;;;5.60;;
34920;SDS011;21128;50.016;20.002;2023-02-26T17:51:42;8.17;;;4.43;;
34920;SDS011;21128;50.016;20.002;2023-02-26T17:54:10;7.60;;;4.23;;
34920;SDS011;21128;50.016;20.002;2023-02-26T17:56:37;10.17;;;4.57;;
34920;SDS011;21128;50.016;20.002;2023-02-26T17:59:04;8.47;;;4.73;;
34920;SDS011;21128;50.016;20.002;2023-02-26T18:01:33;10.03;;;5.42;;
34920;SDS011;21128;50.016;20.002;2023-02-26T18:04:00;11.70;;;4.80;;
34920;SDS011;21128;50.016;20.002;2023-02-26T18:06:30;11.90;;;5.93;;
34920;SDS011;21128;50.016;20.002;2023-02-26T18:09:01;10.20;;;4.90;;